Time;durP1;ratioP1;P1;durP2;ratioP2;P2;SDS_P1;SDS_P2;PMS_P1;PMS_P2;Temp;Humidity;BMP_temperature;BMP_pressure;BME280_temperature;BME280_humidity;BME280_pressure;Samples;Min_cycle;Max_cycle;Signal;HPM_P1;HPM_P2
2023/08/12 00:00:13;;;;;;;24.17;12.35;;;;;;;24.00;66.02;101203.50;680261;29;1282;-81
2023/08/12 00:00:38;;;;;;;22.55;12.40;;;;;;;23.93;66.22;101194.78;680459;29;1080;-81
2023/08/12 00:00:59;;;;;;;20.27;12.37;;;;;;;23.94;66.12;101199.19;682782;28;1048;-81
2023/08/12 00:01:21;;;;;;;19.83;12.57;;;;;;;23.88;66.19;101194.88;682696;29;1188;-80
2023/08/12 00:01:41;;;;;;;24.67;12.75;;;;;;;23.89;66.33;101193.06;677216;29;1282;-80
2023/08/12 00:02:02;;;;;;;27.98;13.18;;;;;;;23.91;66.39;101201.94;683642;28;1207;-80
2023/08/12 00:02:26;;;;;;;29.53;13.97;;;;;;;23.85;66.57;101202.91;682694;29;1152;-81
2023/08/12 00:02:47;;;;;;;25.48;13.93;;;;;;;23.85;66.74;101199.41;682757;28;1258;-80
2023/08/12 00:03:08;;;;;;;21.70;13.38;;;;;;;23.79;66.80;101190.63;685559;28;886;-79
2023/08/12 00:03:28;;;;;;;22.52;13.10;;;;;;;23.85;66.84;101199.41;682738;28;1282;-79
2023/08/12 00:03:49;;;;;;;24.10;13.35;;;;;;;23.79;67.02;101200.41;682627;29;1116;-81
2023/08/12 00:04:14;;;;;;;24.30;13.88;;;;;;;23.80;67.00;101203.03;681578;29;1159;-81
2023/08/12 00:04:35;;;;;;;22.20;13.35;;;;;;;23.79;67.40;101205.75;677551;29;1074;-80
2023/08/12 00:04:56;;;;;;;21.95;13.00;;;;;;;23.75;67.26;101199.59;679819;29;1238;-79
2023/08/12 00:05:17;;;;;;;22.55;12.93;;;;;;;23.72;67.49;101202.31;675171;29;1082;-79
2023/08/12 00:05:39;;;;;;;22.85;13.32;;;;;;;23.69;67.39;101199.69;676939;29;1185;-79
2023/08/12 00:06:01;;;;;;;22.92;13.90;;;;;;;23.69;67.66;101195.22;674783;29;1257;-78
2023/08/12 00:06:22;;;;;;;22.00;14.15;;;;;;;23.69;67.69;101202.34;682516;29;1048;-80
2023/08/12 00:06:43;;;;;;;20.80;13.80;;;;;;;23.73;67.67;101211.19;679661;29;1306;-80
2023/08/12 00:07:03;;;;;;;19.63;13.75;;;;;;;23.71;67.70;101205.88;677481;29;1100;-79
2023/08/12 00:07:24;;;;;;;18.35;13.32;;;;;;;23.68;67.71;101205.91;680041;29;1621;-80
2023/08/12 00:07:44;;;;;;;19.83;14.00;;;;;;;23.65;67.94;101198.88;681952;29;1206;-79
2023/08/12 00:08:06;;;;;;;17.85;13.80;;;;;;;23.61;67.97;101197.16;682145;29;1295;-78
2023/08/12 00:08:42;;;;;;;20.85;14.00;;;;;;;23.66;68.15;101205.06;682317;29;1363;-79
2023/08/12 00:09:03;;;;;;;21.88;14.05;;;;;;;23.63;68.26;101200.69;677298;29;1097;-78
2023/08/12 00:09:27;;;;;;;20.63;14.10;;;;;;;23.56;68.19;101194.59;678724;29;1147;-79
2023/08/12 00:09:49;;;;;;;17.70;13.32;;;;;;;23.57;68.27;101206.13;675308;29;1924;-79
2023/08/12 00:10:12;;;;;;;16.42;12.65;;;;;;;23.57;68.51;101190.16;682389;29;1398;-79
2023/08/12 00:10:33;;;;;;;19.48;13.50;;;;;;;23.55;68.72;101200.81;681875;29;1095;-79
2023/08/12 00:10:53;;;;;;;20.92;14.10;;;;;;;23.54;68.51;101201.75;679844;29;1257;-78
2023/08/12 00:11:14;;;;;;;22.27;14.37;;;;;;;23.56;68.67;101199.91;676389;29;1113;-79
2023/08/12 00:11:35;;;;;;;24.20;14.05;;;;;;;23.58;68.60;101201.66;677067;29;1390;-79
2023/08/12 00:11:56;;;;;;;24.20;14.40;;;;;;;23.55;68.64;101187.50;677226;29;1336;-78
2023/08/12 00:12:16;;;;;;;25.52;14.68;;;;;;;23.61;68.78;101201.63;680280;29;1112;-79
2023/08/12 00:12:38;;;;;;;23.23;14.63;;;;;;;23.56;68.64;101191.91;677326;29;1129;-79
2023/08/12 00:12:59;;;;;;;23.27;14.20;;;;;;;23.58;68.77;101199.00;674828;29;927;-78
2023/08/12 00:13:20;;;;;;;22.42;14.38;;;;;;;23.55;68.93;101191.97;679790;29;1305;-79
2023/08/12 00:13:41;;;;;;;20.98;14.02;;;;;;;23.54;68.80;101195.53;682397;29;1225;-79
2023/08/12 00:14:02;;;;;;;20.83;14.50;;;;;;;23.56;68.76;101197.25;682467;29;1113;-79
2023/08/12 00:14:37;;;;;;;22.08;14.38;;;;;;;23.55;68.92;101189.31;683729;28;1217;-79
2023/08/12 00:14:58;;;;;;;24.73;14.75;;;;;;;23.53;68.83;101193.75;679574;29;1111;-78
2023/08/12 00:15:19;;;;;;;22.83;14.75;;;;;;;23.42;68.78;101175.31;677177;29;1090;-78
2023/08/12 00:15:40;;;;;;;23.60;15.05;;;;;;;23.49;69.07;101198.28;676570;29;1174;-78
2023/08/12 00:16:01;;;;;;;21.48;14.27;;;;;;;23.47;69.14;101184.13;674541;29;1614;-79
2023/08/12 00:16:22;;;;;;;22.20;14.23;;;;;;;23.47;69.09;101192.09;673115;29;1275;-78
2023/08/12 00:16:42;;;;;;;23.73;14.20;;;;;;;23.53;69.04;101199.97;682366;29;1092;-79
2023/08/12 00:17:03;;;;;;;26.13;14.98;;;;;;;23.50;69.44;101193.84;679275;29;1576;-79
2023/08/12 00:17:24;;;;;;;26.53;15.10;;;;;;;23.50;69.26;101204.50;681192;28;1880;-79
2023/08/12 00:17:44;;;;;;;23.63;15.23;;;;;;;23.45;69.21;101185.94;684371;28;917;-79
2023/08/12 00:18:06;;;;;;;21.20;15.70;;;;;;;23.42;69.25;101188.66;687610;28;1237;-78
2023/08/12 00:18:27;;;;;;;19.75;14.60;;;;;;;23.42;69.37;101186.88;688788;28;1304;-79
2023/08/12 00:18:47;;;;;;;19.27;13.85;;;;;;;23.42;69.30;101186.88;685098;28;1021;-79
2023/08/12 00:19:08;;;;;;;20.60;13.57;;;;;;;23.43;69.27;101187.75;679456;29;2625;-79
2023/08/12 00:19:29;;;;;;;20.83;14.63;;;;;;;23.41;69.37;101189.56;676921;29;1259;-78
2023/08/12 00:19:49;;;;;;;21.02;14.98;;;;;;;23.46;69.42;101197.44;677026;29;939;-78
2023/08/12 00:20:12;;;;;;;19.63;15.03;;;;;;;23.47;69.33;101193.91;677096;29;1161;-79
2023/08/12 00:20:32;;;;;;;18.00;14.43;;;;;;;23.39;69.26;101186.06;676487;29;1195;-79
2023/08/12 00:20:53;;;;;;;18.23;14.63;;;;;;;23.41;69.62;101186.91;674498;29;1281;-79
2023/08/12 00:21:13;;;;;;;21.73;14.32;;;;;;;23.39;69.69;101186.06;674618;29;1250;-80
2023/08/12 00:21:34;;;;;;;24.50;14.97;;;;;;;23.43;69.59;101198.41;675315;29;1256;-79
2023/08/12 00:21:55;;;;;;;26.08;15.10;;;;;;;23.38;69.40;101189.63;681406;29;1374;-78
2023/08/12 00:22:16;;;;;;;22.83;15.75;;;;;;;23.37;69.72;101182.56;685061;28;1217;-79
2023/08/12 00:22:37;;;;;;;25.27;15.90;;;;;;;23.41;69.57;101189.56;682437;28;1056;-79
2023/08/12 00:22:58;;;;;;;25.00;15.40;;;;;;;23.36;69.85;101186.13;677123;29;1415;-79
2023/08/12 00:23:18;;;;;;;25.80;15.07;;;;;;;23.37;69.73;101177.22;680341;29;1283;-79
2023/08/12 00:23:40;;;;;;;23.40;15.40;;;;;;;23.40;69.54;101186.03;681612;29;1348;-79
2023/08/12 00:24:01;;;;;;;22.85;15.80;;;;;;;23.36;69.83;101175.47;679761;29;920;-79
2023/08/12 00:24:22;;;;;;;22.20;15.63;;;;;;;23.40;69.56;101177.16;675714;29;1156;-79
2023/08/12 00:24:43;;;;;;;22.83;15.40;;;;;;;23.35;69.82;101176.38;684510;28;1192;-78
2023/08/12 00:25:04;;;;;;;22.35;15.65;;;;;;;23.39;69.68;101191.38;682199;29;1142;-79
2023/08/12 00:25:25;;;;;;;21.83;15.27;;;;;;;23.36;69.94;101186.13;679698;29;1127;-79
2023/08/12 00:25:45;;;;;;;20.45;15.40;;;;;;;23.35;70.04;101181.72;678875;29;1341;-79
2023/08/12 00:26:10;;;;;;;22.77;15.40;;;;;;;23.35;70.05;101176.38;679913;29;1069;-79
2023/08/12 00:26:30;;;;;;;27.40;15.20;;;;;;;23.37;69.85;101182.56;682129;29;1051;-79
2023/08/12 00:26:51;;;;;;;28.33;14.50;;;;;;;23.35;69.92;101168.41;682242;29;1068;-79
2023/08/12 00:27:11;;;;;;;23.80;14.20;;;;;;;23.38;70.24;101184.31;677284;29;1283;-79
2023/08/12 00:27:32;;;;;;;23.92;15.07;;;;;;;23.36;70.10;101173.66;677095;29;1078;-79
2023/08/12 00:27:52;;;;;;;24.17;15.67;;;;;;;23.35;70.19;101173.72;679628;29;1419;-79
2023/08/12 00:28:13;;;;;;;24.65;15.70;;;;;;;23.34;70.00;101166.63;677046;29;1135;-79
2023/08/12 00:28:35;;;;;;;24.60;15.48;;;;;;;23.40;70.07;101182.47;679952;29;1160;-79
2023/08/12 00:28:55;;;;;;;22.40;14.80;;;;;;;23.38;70.21;101174.53;679866;29;967;-79
2023/08/12 00:29:17;;;;;;;21.88;14.95;;;;;;;23.40;70.21;101177.16;677216;29;1207;-79
2023/08/12 00:29:38;;;;;;;23.90;15.50;;;;;;;23.42;70.30;101183.31;671993;29;2004;-79
2023/08/12 00:29:58;;;;;;;25.27;15.15;;;;;;;23.37;70.09;101172.75;675824;29;1054;-79
2023/08/12 00:30:19;;;;;;;24.73;14.88;;;;;;;23.38;70.52;101174.53;679611;29;1124;-79
2023/08/12 00:30:40;;;;;;;22.37;14.20;;;;;;;23.36;70.27;101164.81;682361;28;1160;-78
2023/08/12 00:31:02;;;;;;;21.77;14.98;;;;;;;23.39;70.20;101175.41;677055;29;1340;-79
2023/08/12 00:31:23;;;;;;;18.48;14.20;;;;;;;23.40;70.28;101169.16;678368;29;1210;-80
2023/08/12 00:31:44;;;;;;;20.67;14.73;;;;;;;23.39;70.26;101170.06;679431;29;1243;-79
2023/08/12 00:32:05;;;;;;;24.20;14.75;;;;;;;23.38;70.21;101171.00;674669;29;1259;-79
2023/08/12 00:32:26;;;;;;;26.35;15.45;;;;;;;23.41;70.20;101174.47;676282;29;1310;-79
2023/08/12 00:32:47;;;;;;;21.77;15.30;;;;;;;23.40;70.01;101172.72;674480;29;1098;-79
2023/08/12 00:33:07;;;;;;;24.48;15.10;;;;;;;23.41;70.44;101178.91;677146;29;1393;-79
2023/08/12 00:33:30;;;;;;;24.33;15.23;;;;;;;23.40;69.97;101174.50;674546;29;1222;-80
2023/08/12 00:33:50;;;;;;;24.70;15.02;;;;;;;23.35;70.40;101163.06;674501;29;1066;-80
2023/08/12 00:34:11;;;;;;;21.23;15.70;;;;;;;23.37;70.53;101171.91;671536;29;1243;-79
2023/08/12 00:34:32;;;;;;;22.90;15.40;;;;;;;23.32;70.32;101157.78;679559;29;1283;-79
2023/08/12 00:34:52;;;;;;;23.88;16.10;;;;;;;23.27;70.16;101156.09;675464;29;1180;-80
2023/08/12 00:35:13;;;;;;;25.20;15.50;;;;;;;23.36;70.40;101173.66;674984;29;1195;-80
2023/08/12 00:35:34;;;;;;;24.60;15.57;;;;;;;23.28;70.77;101170.28;676938;29;824;-80
2023/08/12 00:35:54;;;;;;;23.23;14.60;;;;;;;23.30;70.75;101164.94;679636;29;1126;-80
2023/08/12 00:36:17;;;;;;;21.63;14.65;;;;;;;23.28;70.50;101168.50;679467;29;1203;-79
2023/08/12 00:36:38;;;;;;;20.55;14.80;;;;;;;23.24;70.53;101158.81;677153;29;1297;-80
2023/08/12 00:36:58;;;;;;;22.45;15.93;;;;;;;23.27;70.71;101163.19;679144;29;1808;-79
2023/08/12 00:37:19;;;;;;;22.20;15.70;;;;;;;23.21;70.52;101166.88;677235;29;1223;-79
2023/08/12 00:37:40;;;;;;;23.97;15.53;;;;;;;23.24;70.82;101157.94;676900;29;1447;-80
2023/08/12 00:38:01;;;;;;;24.63;15.20;;;;;;;23.25;70.75;101173.88;673480;29;833;-79
2023/08/12 00:38:21;;;;;;;25.80;15.27;;;;;;;23.24;70.73;101158.81;679793;29;1165;-80
2023/08/12 00:38:42;;;;;;;28.08;15.85;;;;;;;23.22;70.68;101165.97;677184;29;1121;-79
2023/08/12 00:39:03;;;;;;;27.43;15.70;;;;;;;23.21;70.67;101165.97;674509;29;1221;-80
2023/08/12 00:39:24;;;;;;;25.08;15.45;;;;;;;23.19;70.66;101152.72;674486;29;1210;-79
2023/08/12 00:39:45;;;;;;;23.30;15.40;;;;;;;23.26;70.69;101165.00;674273;29;1193;-80
2023/08/12 00:40:06;;;;;;;27.98;15.68;;;;;;;23.22;71.00;101163.28;679493;29;1545;-80
2023/08/12 00:40:27;;;;;;;28.10;16.13;;;;;;;23.22;70.88;101157.97;684472;28;1761;-80
2023/08/12 00:40:48;;;;;;;30.17;15.90;;;;;;;23.24;70.84;101168.59;682301;29;1127;-79
2023/08/12 00:41:08;;;;;;;26.35;15.95;;;;;;;23.19;70.84;101152.72;680298;28;1202;-79
2023/08/12 00:41:29;;;;;;;25.50;16.00;;;;;;;23.20;70.69;101158.91;681893;29;1409;-80
2023/08/12 00:41:50;;;;;;;22.75;15.70;;;;;;;23.21;71.05;101156.22;682183;29;1179;-79
2023/08/12 00:42:11;;;;;;;22.00;15.48;;;;;;;23.20;70.70;101153.56;677186;29;1033;-80
2023/08/12 00:42:32;;;;;;;22.73;15.20;;;;;;;23.21;71.03;101164.22;676923;29;1284;-80
2023/08/12 00:42:52;;;;;;;23.63;15.15;;;;;;;23.21;70.92;101161.53;678803;29;1262;-80
2023/08/12 00:43:13;;;;;;;24.40;15.70;;;;;;;23.22;70.73;101152.66;677037;29;1432;-80
2023/08/12 00:43:34;;;;;;;26.80;16.80;;;;;;;23.20;71.07;101154.47;677370;29;736;-80
2023/08/12 00:43:55;;;;;;;25.43;16.67;;;;;;;23.23;70.86;101159.72;677140;29;1160;-81
2023/08/12 00:44:15;;;;;;;24.98;16.67;;;;;;;23.18;70.79;101153.59;679754;29;1190;-80
2023/08/12 00:44:36;;;;;;;21.80;15.80;;;;;;;23.20;70.95;101159.78;678158;29;1358;-80
2023/08/12 00:44:57;;;;;;;24.80;15.80;;;;;;;23.16;71.10;101155.41;682343;28;1409;-80
2023/08/12 00:45:18;;;;;;;25.73;15.45;;;;;;;23.20;70.96;101153.56;681145;28;1194;-79
2023/08/12 00:45:39;;;;;;;28.40;16.35;;;;;;;23.20;70.97;101158.91;681866;29;1187;-80
2023/08/12 00:45:59;;;;;;;24.85;16.20;;;;;;;23.24;70.80;101155.28;685198;28;819;-79
2023/08/12 00:46:20;;;;;;;20.60;16.15;;;;;;;23.17;70.88;101153.66;680878;29;1185;-80
2023/08/12 00:46:42;;;;;;;21.17;15.60;;;;;;;23.14;71.19;101146.59;687599;28;1365;-79
2023/08/12 00:47:03;;;;;;;22.45;15.63;;;;;;;23.18;71.04;101153.59;685307;28;1096;-80
2023/08/12 00:47:24;;;;;;;26.77;15.30;;;;;;;23.22;71.01;101155.31;682897;29;1151;-80
2023/08/12 00:47:45;;;;;;;26.75;16.15;;;;;;;23.17;71.23;101154.50;682776;29;1189;-81
2023/08/12 00:48:07;;;;;;;25.37;16.17;;;;;;;23.17;71.15;101151.84;675278;29;1384;-79
2023/08/12 00:48:28;;;;;;;20.98;16.42;;;;;;;23.19;71.19;101151.81;679601;29;1239;-79
2023/08/12 00:48:49;;;;;;;20.95;16.08;;;;;;;23.17;71.14;101149.19;677633;29;1167;-80
2023/08/12 00:49:11;;;;;;;21.10;15.83;;;;;;;23.20;71.37;101157.13;680175;29;1031;-80
2023/08/12 00:49:32;;;;;;;21.08;15.63;;;;;;;23.18;71.30;101152.75;679496;29;1234;-80
2023/08/12 00:49:56;;;;;;;22.55;15.85;;;;;;;23.19;71.17;101155.38;674766;29;1911;-80
2023/08/12 00:50:16;;;;;;;26.48;16.80;;;;;;;23.18;71.02;101156.25;680327;29;1169;-80
2023/08/12 00:50:40;;;;;;;25.88;16.77;;;;;;;23.19;71.03;101163.38;683016;29;1056;-79
2023/08/12 00:51:01;;;;;;;25.70;16.85;;;;;;;23.17;71.40;101151.84;680123;29;905;-82
2023/08/12 00:51:22;;;;;;;24.77;16.27;;;;;;;23.18;71.14;101150.06;680195;29;1210;-81
2023/08/12 00:51:44;;;;;;;22.80;15.95;;;;;;;23.21;71.28;101153.56;677923;29;1357;-82
2023/08/12 00:52:05;;;;;;;21.08;15.82;;;;;;;23.24;71.45;101156.16;680384;29;1073;-82
2023/08/12 00:52:26;;;;;;;20.67;15.77;;;;;;;23.23;71.33;101159.72;684459;28;1572;-82
2023/08/12 00:52:47;;;;;;;20.92;16.15;;;;;;;23.21;71.50;101153.56;680195;29;1232;-82
2023/08/12 00:53:10;;;;;;;21.25;15.57;;;;;;;23.21;71.58;101147.34;675091;29;1272;-82
2023/08/12 00:53:31;;;;;;;21.23;16.35;;;;;;;23.21;71.35;101150.00;679730;29;1319;-82
2023/08/12 00:53:54;;;;;;;21.67;17.38;;;;;;;23.23;71.70;101159.72;677424;29;1302;-82
2023/08/12 00:54:16;;;;;;;22.25;18.13;;;;;;;23.21;71.58;101150.91;677777;29;1167;-81
2023/08/12 00:54:37;;;;;;;21.75;17.27;;;;;;;23.23;71.72;101157.06;683005;29;1017;-82
2023/08/12 00:54:58;;;;;;;23.00;17.00;;;;;;;23.21;71.76;101160.66;682999;29;984;-82
2023/08/12 00:55:20;;;;;;;23.42;16.92;;;;;;;23.21;72.00;101155.31;688341;28;1212;-82
2023/08/12 00:55:41;;;;;;;23.37;17.00;;;;;;;23.27;71.93;101161.44;682251;29;1056;-82
2023/08/12 00:56:03;;;;;;;23.08;17.17;;;;;;;23.26;71.96;101158.78;677544;29;1283;-82
2023/08/12 00:56:23;;;;;;;19.92;15.98;;;;;;;23.21;71.91;101150.91;677776;29;1175;-82
2023/08/12 00:56:45;;;;;;;19.95;15.60;;;;;;;23.27;72.10;101158.78;674398;29;1383;-82
2023/08/12 00:57:06;;;;;;;19.45;15.48;;;;;;;23.26;71.78;101162.34;677615;29;1185;-82
2023/08/12 00:57:29;;;;;;;21.63;16.27;;;;;;;23.26;72.30;101154.34;685494;28;1285;-82
2023/08/12 00:57:50;;;;;;;21.58;16.58;;;;;;;23.26;72.14;101173.00;682792;28;1333;-82
2023/08/12 00:58:12;;;;;;;21.15;16.65;;;;;;;23.23;72.03;101154.41;680313;29;1057;-81
2023/08/12 00:58:35;;;;;;;21.55;16.55;;;;;;;23.23;72.14;101158.84;677629;29;1031;-82
2023/08/12 00:58:56;;;;;;;23.20;16.10;;;;;;;23.20;72.18;101149.16;674934;29;1150;-82
2023/08/12 00:59:17;;;;;;;23.53;16.07;;;;;;;23.19;72.16;101143.84;683571;28;1187;-82
2023/08/12 00:59:42;;;;;;;23.50;16.20;;;;;;;23.19;72.22;101150.06;680815;29;1282;-82
2023/08/12 01:00:04;;;;;;;21.20;16.10;;;;;;;23.20;72.03;101149.16;676964;29;1367;-81
2023/08/12 01:00:24;;;;;;;21.25;15.90;;;;;;;23.22;72.19;101163.28;674833;29;1064;-82
2023/08/12 01:00:45;;;;;;;24.77;17.02;;;;;;;23.21;72.11;101155.31;683937;29;1111;-82
2023/08/12 01:01:07;;;;;;;23.63;16.75;;;;;;;23.19;72.42;101152.72;684066;28;997;-82
2023/08/12 01:01:28;;;;;;;24.13;16.80;;;;;;;23.17;72.23;101146.53;685438;28;1400;-82
2023/08/12 01:01:49;;;;;;;21.47;15.97;;;;;;;23.14;72.37;101141.28;684056;29;1112;-81
2023/08/12 01:02:11;;;;;;;22.17;15.85;;;;;;;23.12;72.23;101145.75;686883;28;1189;-82
2023/08/12 01:02:32;;;;;;;22.38;15.77;;;;;;;23.11;72.65;101150.19;685732;28;1437;-82
2023/08/12 01:02:54;;;;;;;22.90;16.00;;;;;;;23.14;72.39;101149.25;677512;29;1122;-82
2023/08/12 01:03:14;;;;;;;26.30;16.35;;;;;;;23.13;72.35;101147.50;677633;29;1165;-82
2023/08/12 01:03:35;;;;;;;29.00;16.75;;;;;;;23.17;72.51;101143.84;677532;29;1409;-82
2023/08/12 01:03:57;;;;;;;28.35;16.95;;;;;;;23.15;72.48;101151.00;680002;29;1407;-82
2023/08/12 01:04:18;;;;;;;26.40;17.73;;;;;;;23.16;72.27;101147.44;682397;28;1479;-81
2023/08/12 01:04:39;;;;;;;26.20;17.70;;;;;;;23.11;72.45;101141.34;680056;29;1262;-81
2023/08/12 01:04:59;;;;;;;23.63;16.73;;;;;;;23.10;72.56;101142.22;677752;29;830;-81
2023/08/12 01:05:20;;;;;;;25.15;16.20;;;;;;;23.13;72.47;101150.16;680201;29;1096;-82
2023/08/12 01:05:41;;;;;;;22.13;16.17;;;;;;;23.19;72.37;101157.16;679367;29;1126;-81
2023/08/12 01:06:04;;;;;;;24.88;16.13;;;;;;;23.18;72.54;101156.25;677459;29;1600;-81
2023/08/12 01:06:25;;;;;;;25.58;15.90;;;;;;;23.15;72.38;101145.69;680873;29;1349;-81
2023/08/12 01:06:46;;;;;;;29.83;16.80;;;;;;;23.15;72.53;101151.00;685138;28;1195;-81
2023/08/12 01:07:07;;;;;;;30.08;18.15;;;;;;;23.09;72.40;101141.34;680270;29;899;-82
2023/08/12 01:07:28;;;;;;;26.50;18.10;;;;;;;23.13;72.60;101147.50;679964;29;1136;-81
2023/08/12 01:07:49;;;;;;;21.15;17.10;;;;;;;23.13;72.56;101143.03;677498;29;1140;-81
2023/08/12 01:08:10;;;;;;;19.33;16.15;;;;;;;23.10;72.56;101132.47;677378;29;1499;-81
2023/08/12 01:08:31;;;;;;;22.33;16.47;;;;;;;23.17;72.57;101143.00;682190;29;1377;-81
2023/08/12 01:08:52;;;;;;;23.23;16.63;;;;;;;23.16;72.85;101141.25;682510;29;1144;-81
2023/08/12 01:09:13;;;;;;;25.58;17.17;;;;;;;23.12;72.55;101130.63;677616;29;1462;-81
2023/08/12 01:09:34;;;;;;;26.50;17.05;;;;;;;23.17;72.43;101135.88;680330;29;1136;-82
2023/08/12 01:09:55;;;;;;;27.13;17.10;;;;;;;23.12;72.61;101127.13;679792;29;1910;-82
2023/08/12 01:10:16;;;;;;;25.70;16.77;;;;;;;23.18;72.73;101134.09;680770;29;1079;-80
2023/08/12 01:10:44;;;;;;;23.77;16.42;;;;;;;23.05;72.72;101134.31;680174;29;1145;-82
2023/08/12 01:11:16;;;;;;;22.88;15.85;;;;;;;22.96;73.26;101140.69;682876;29;1356;-81
2023/08/12 01:11:50;;;;;;;24.00;16.50;;;;;;;22.93;73.43;101143.38;680287;29;1088;-82
2023/08/12 01:12:18;;;;;;;27.15;17.55;;;;;;;22.84;73.88;101139.13;682739;29;1096;-82
2023/08/12 01:12:48;;;;;;;25.33;17.65;;;;;;;22.83;73.74;101144.44;675016;29;1269;-81
2023/08/12 01:13:54;;;;;;;27.17;18.10;;;;;;;22.84;74.06;101148.88;675033;29;1047;-82
2023/08/12 01:14:23;;;;;;;29.05;18.05;;;;;;;22.80;74.03;101133.88;676594;29;1318;-82
2023/08/12 01:15:02;;;;;;;24.63;17.00;;;;;;;22.84;74.32;101146.19;679891;29;1060;-82
2023/08/12 01:15:25;;;;;;;23.42;18.35;;;;;;;22.87;74.39;101141.72;682197;28;1781;-82
2023/08/12 01:15:50;;;;;;;26.13;19.17;;;;;;;22.87;74.35;101149.69;683988;28;2730;-81
2023/08/12 01:16:13;;;;;;;26.77;19.20;;;;;;;22.79;74.16;101135.66;680178;29;1010;-81
2023/08/12 01:16:40;;;;;;;26.45;19.27;;;;;;;22.86;74.37;101155.03;680209;28;1284;-82
2023/08/12 01:17:05;;;;;;;23.15;17.83;;;;;;;22.84;74.22;101146.19;680152;28;1091;-82
2023/08/12 01:17:29;;;;;;;23.52;17.45;;;;;;;22.81;74.26;101146.28;680688;28;1931;-82
2023/08/12 01:17:52;;;;;;;26.30;17.42;;;;;;;22.79;74.66;101137.44;677241;29;1418;-82
2023/08/12 01:18:14;;;;;;;28.00;18.38;;;;;;;22.85;74.60;101145.28;682174;29;1072;-82
2023/08/12 01:18:36;;;;;;;24.77;17.73;;;;;;;22.78;74.64;101130.34;678945;29;1268;-82
2023/08/12 01:18:58;;;;;;;24.92;18.40;;;;;;;22.82;74.66;101143.56;683563;28;1430;-82
2023/08/12 01:19:39;;;;;;;25.88;18.45;;;;;;;22.84;74.75;101148.88;680036;29;1263;-82
2023/08/12 01:20:02;;;;;;;28.40;19.50;;;;;;;22.80;74.50;101141.84;679982;29;1110;-82
2023/08/12 01:20:26;;;;;;;25.38;18.65;;;;;;;22.80;74.78;101140.06;680203;29;1147;-82
2023/08/12 01:20:47;;;;;;;24.25;17.63;;;;;;;22.77;74.47;101132.13;679250;29;1222;-82
2023/08/12 01:21:12;;;;;;;22.55;17.35;;;;;;;22.79;74.63;101135.66;680256;29;1033;-82
2023/08/12 01:21:35;;;;;;;24.05;18.10;;;;;;;22.81;74.59;101140.94;679714;29;1391;-82
2023/08/12 01:22:00;;;;;;;23.10;18.15;;;;;;;22.82;74.93;101138.22;680025;29;1246;-82
2023/08/12 01:22:25;;;;;;;24.40;18.10;;;;;;;22.83;74.82;101139.13;678553;29;1222;-82
2023/08/12 01:22:48;;;;;;;31.70;18.95;;;;;;;22.83;74.68;101134.69;679977;29;974;-82
2023/08/12 01:23:11;;;;;;;33.80;19.38;;;;;;;22.79;74.64;101130.31;680226;29;1129;-81
2023/08/12 01:23:32;;;;;;;33.50;19.00;;;;;;;22.83;74.70;101140.03;682661;29;1277;-82
2023/08/12 01:23:53;;;;;;;30.15;19.23;;;;;;;22.79;75.03;101132.13;679815;29;1207;-82
2023/08/12 01:24:14;;;;;;;27.60;18.98;;;;;;;22.81;75.00;101136.50;677230;29;1275;-81
2023/08/12 01:24:39;;;;;;;24.15;19.30;;;;;;;22.85;74.74;101142.63;680190;29;824;-82
2023/08/12 01:25:00;;;;;;;23.85;18.70;;;;;;;22.86;74.79;101147.03;683657;28;1325;-82
2023/08/12 01:25:21;;;;;;;25.45;18.58;;;;;;;22.81;74.72;101141.81;680492;29;1158;-82
2023/08/12 01:25:42;;;;;;;24.50;17.83;;;;;;;22.86;74.79;101139.94;679246;29;1280;-81
2023/08/12 01:26:03;;;;;;;24.88;17.80;;;;;;;22.85;74.87;101142.63;676936;29;1340;-81
2023/08/12 01:26:24;;;;;;;23.65;17.67;;;;;;;22.86;75.03;101147.03;679866;29;1170;-82
2023/08/12 01:26:45;;;;;;;25.92;18.67;;;;;;;22.83;74.89;101144.44;678873;29;1441;-82
2023/08/12 01:27:06;;;;;;;25.50;18.97;;;;;;;22.86;74.93;101147.03;674784;29;1174;-81
2023/08/12 01:27:27;;;;;;;27.20;19.10;;;;;;;22.81;74.74;101148.94;673935;29;1383;-81
2023/08/12 01:27:48;;;;;;;25.90;19.08;;;;;;;22.78;74.92;101143.63;679874;29;1380;-82
2023/08/12 01:28:09;;;;;;;26.20;18.35;;;;;;;22.80;74.94;101141.84;684883;28;1688;-81
2023/08/12 01:28:31;;;;;;;25.02;17.80;;;;;;;22.79;74.90;101142.75;685269;28;1294;-82
2023/08/12 01:28:51;;;;;;;24.43;17.73;;;;;;;22.83;74.95;101155.97;677088;29;1215;-82
2023/08/12 01:29:12;;;;;;;24.42;17.52;;;;;;;22.76;74.98;101142.81;674795;29;1197;-82
2023/08/12 01:29:49;;;;;;;23.00;17.90;;;;;;;22.80;75.03;101149.84;680026;29;844;-81
2023/08/12 01:30:10;;;;;;;22.30;17.55;;;;;;;22.76;74.95;101137.47;677438;28;974;-81
2023/08/12 01:30:33;;;;;;;21.65;16.60;;;;;;;22.75;74.87;101141.94;674612;29;1370;-81
2023/08/12 01:31:15;;;;;;;21.10;16.52;;;;;;;22.75;74.85;101136.63;677101;29;1197;-82
2023/08/12 01:31:47;;;;;;;25.58;18.52;;;;;;;22.77;74.87;101140.13;679879;29;1235;-82
2023/08/12 01:32:11;;;;;;;24.38;18.08;;;;;;;22.82;75.04;101148.88;680223;29;1265;-82
2023/08/12 01:33:04;;;;;;;23.98;17.58;;;;;;;22.83;74.82;101149.78;682554;29;1151;-79
2023/08/12 01:33:43;;;;;;;25.07;18.93;;;;;;;22.84;75.00;101151.53;681588;29;1182;-79
2023/08/12 01:34:20;;;;;;;27.45;18.48;;;;;;;22.84;74.96;101143.53;681985;29;1423;-79
2023/08/12 01:34:50;;;;;;;27.15;18.20;;;;;;;22.81;74.86;101143.59;682953;28;1213;-82
2023/08/12 01:35:21;;;;;;;25.70;18.80;;;;;;;22.86;75.02;101147.03;679966;29;1261;-81
2023/08/12 01:35:50;;;;;;;27.95;19.40;;;;;;;22.87;75.07;101143.50;676552;29;984;-81
2023/08/12 01:36:22;;;;;;;28.40;19.52;;;;;;;22.82;74.94;101142.69;677413;29;925;-82
2023/08/12 01:36:48;;;;;;;27.45;19.38;;;;;;;22.82;74.80;101135.56;682454;28;1420;-81
2023/08/12 01:37:11;;;;;;;25.30;18.75;;;;;;;22.84;74.96;101147.09;680141;29;1369;-82
2023/08/12 01:37:36;;;;;;;26.07;18.93;;;;;;;22.84;74.61;101148.88;675054;29;1376;-81
2023/08/12 01:38:02;;;;;;;26.08;19.20;;;;;;;22.86;74.64;101149.72;674715;29;951;-82
2023/08/12 01:38:39;;;;;;;23.65;19.05;;;;;;;22.83;74.65;101152.44;678275;29;1609;-82
2023/08/12 01:39:01;;;;;;;26.52;19.40;;;;;;;22.79;74.73;101146.28;674831;29;1457;-82
2023/08/12 01:39:23;;;;;;;25.98;19.35;;;;;;;22.76;75.02;101140.13;678446;29;1159;-82
2023/08/12 01:39:46;;;;;;;25.25;19.27;;;;;;;22.79;75.09;101151.59;675000;29;1342;-82
2023/08/12 01:40:10;;;;;;;23.98;20.23;;;;;;;22.81;75.23;101152.44;680058;28;1341;-82
2023/08/12 01:40:31;;;;;;;23.45;20.40;;;;;;;22.78;75.06;101140.97;679483;29;1298;-81
2023/08/12 01:40:53;;;;;;;24.40;20.20;;;;;;;22.80;75.04;101144.50;677145;29;1297;-82
2023/08/12 01:41:16;;;;;;;24.58;19.40;;;;;;;22.78;74.99;101143.63;676267;29;1066;-81
2023/08/12 01:41:37;;;;;;;26.50;19.42;;;;;;;22.81;74.97;101146.28;680007;29;1177;-82
2023/08/12 01:41:59;;;;;;;28.02;19.80;;;;;;;22.77;75.20;101141.88;679880;29;1260;-81
2023/08/12 01:42:19;;;;;;;28.33;20.00;;;;;;;22.81;75.17;101147.13;683344;28;1259;-82
2023/08/12 01:42:41;;;;;;;27.43;20.47;;;;;;;22.81;74.98;101146.28;679896;29;1112;-82
2023/08/12 01:43:04;;;;;;;26.42;20.45;;;;;;;22.81;75.00;101151.59;677639;29;1384;-80
2023/08/12 01:43:25;;;;;;;25.70;20.55;;;;;;;22.79;75.04;101151.59;682534;29;1186;-80
2023/08/12 01:43:46;;;;;;;25.70;19.98;;;;;;;22.80;75.11;101147.19;684961;28;1163;-80
2023/08/12 01:44:07;;;;;;;26.23;20.00;;;;;;;22.77;75.22;101144.56;677332;29;892;-80
2023/08/12 01:44:28;;;;;;;24.40;18.90;;;;;;;22.78;75.06;101146.31;680032;29;1803;-80
2023/08/12 01:44:49;;;;;;;25.25;19.38;;;;;;;22.72;75.03;101141.97;685532;28;1281;-81
2023/08/12 01:45:10;;;;;;;24.85;19.67;;;;;;;22.77;75.29;101147.22;685240;28;1331;-82
2023/08/12 01:45:34;;;;;;;25.38;20.42;;;;;;;22.72;75.33;101136.66;680102;29;1197;-81